sensor_id;sensor_type;location;lat;lon;timestamp;pressure;altitude;pressure_sealevel;temperature;humidity
79075;BME280;68476;42.710;23.388;2023-06-24T00:02:09;95575.72;;;19.19;79.00
79075;BME280;68476;42.710;23.388;2023-06-24T00:04:34;95576.88;;;19.08;79.51
79075;BME280;68476;42.710;23.388;2023-06-24T00:07:00;95579.13;;;19.01;79.95
79075;BME280;68476;42.710;23.388;2023-06-24T00:09:29;95576.38;;;18.96;79.50
79075;BME280;68476;42.710;23.388;2023-06-24T00:11:58;95573.06;;;18.88;80.33
79075;BME280;68476;42.710;23.388;2023-06-24T00:14:26;95570.03;;;18.90;80.51
79075;BME280;68476;42.710;23.388;2023-06-24T00:16:55;95568.66;;;18.82;80.26
79075;BME280;68476;42.710;23.388;2023-06-24T00:19:25;95569.56;;;18.72;81.08
79075;BME280;68476;42.710;23.388;2023-06-24T00:21:52;95577.56;;;18.69;81.63
79075;BME280;68476;42.710;23.388;2023-06-24T00:24:21;95565.44;;;18.70;81.68
79075;BME280;68476;42.710;23.388;2023-06-24T00:26:51;95567.91;;;18.66;81.86
79075;BME280;68476;42.710;23.388;2023-06-24T00:29:16;95567.31;;;18.79;81.59
79075;BME280;68476;42.710;23.388;2023-06-24T00:31:41;95567.06;;;18.71;82.19
79075;BME280;68476;42.710;23.388;2023-06-24T00:34:07;95569.81;;;18.76;81.76
79075;BME280;68476;42.710;23.388;2023-06-24T00:36:33;95576.69;;;18.94;80.68
79075;BME280;68476;42.710;23.388;2023-06-24T00:39:00;95573.56;;;19.06;80.20
79075;BME280;68476;42.710;23.388;2023-06-24T00:41:27;95575.53;;;19.05;80.15
79075;BME280;68476;42.710;23.388;2023-06-24T00:43:53;95571.69;;;18.96;80.22
79075;BME280;68476;42.710;23.388;2023-06-24T00:46:19;95580.25;;;18.94;79.96
79075;BME280;68476;42.710;23.388;2023-06-24T00:48:45;95571.97;;;18.84;80.70
79075;BME280;68476;42.710;23.388;2023-06-24T00:51:10;95570.91;;;18.80;80.73
79075;BME280;68476;42.710;23.388;2023-06-24T00:53:36;95563.44;;;18.86;81.04
79075;BME280;68476;42.710;23.388;2023-06-24T00:56:02;95556.53;;;18.83;80.51
79075;BME280;68476;42.710;23.388;2023-06-24T00:58:32;95558.47;;;18.83;80.39
79075;BME280;68476;42.710;23.388;2023-06-24T01:01:00;95560.97;;;18.74;81.22
79075;BME280;68476;42.710;23.388;2023-06-24T01:03:27;95559.91;;;18.70;80.69
79075;BME280;68476;42.710;23.388;2023-06-24T01:05:54;95556.03;;;18.66;81.01
79075;BME280;68476;42.710;23.388;2023-06-24T01:08:19;95553.00;;;18.67;81.02
79075;BME280;68476;42.710;23.388;2023-06-24T01:10:48;95557.41;;;18.73;80.69
79075;BME280;68476;42.710;23.388;2023-06-24T01:13:14;95555.47;;;18.74;80.49
79075;BME280;68476;42.710;23.388;2023-06-24T01:15:39;95554.38;;;18.70;80.90
79075;BME280;68476;42.710;23.388;2023-06-24T01:18:13;95557.66;;;18.72;79.99
79075;BME280;68476;42.710;23.388;2023-06-24T01:20:53;95557.31;;;18.89;79.54
79075;BME280;68476;42.710;23.388;2023-06-24T01:23:41;95553.19;;;18.97;78.94
79075;BME280;68476;42.710;23.388;2023-06-24T01:36:47;95562.28;;;18.92;78.44
79075;BME280;68476;42.710;23.388;2023-06-24T01:39:16;95555.41;;;18.89;78.29
79075;BME280;68476;42.710;23.388;2023-06-24T01:41:49;95564.81;;;18.83;78.70
79075;BME280;68476;42.710;23.388;2023-06-24T01:44:17;95556.25;;;18.85;78.86
79075;BME280;68476;42.710;23.388;2023-06-24T01:46:46;95555.66;;;18.88;78.47
79075;BME280;68476;42.710;23.388;2023-06-24T01:49:14;95567.00;;;18.91;77.92
79075;BME280;68476;42.710;23.388;2023-06-24T01:51:41;95578.59;;;18.99;78.39
79075;BME280;68476;42.710;23.388;2023-06-24T01:54:13;95577.50;;;18.94;78.04
79075;BME280;68476;42.710;23.388;2023-06-24T01:56:41;95580.25;;;18.94;77.51
79075;BME280;68476;42.710;23.388;2023-06-24T01:59:08;95581.84;;;19.11;77.13
79075;BME280;68476;42.710;23.388;2023-06-24T02:01:37;95592.28;;;19.24;76.77
79075;BME280;68476;42.710;23.388;2023-06-24T02:04:07;95589.47;;;19.30;76.10
79075;BME280;68476;42.710;23.388;2023-06-24T02:06:34;95585.41;;;19.22;76.57
79075;BME280;68476;42.710;23.388;2023-06-24T02:09:01;95587.38;;;19.16;76.32
79075;BME280;68476;42.710;23.388;2023-06-24T02:11:30;95597.31;;;19.12;75.89
79075;BME280;68476;42.710;23.388;2023-06-24T02:13:59;95603.41;;;19.09;76.74
79075;BME280;68476;42.710;23.388;2023-06-24T02:16:26;95603.13;;;19.05;77.22
79075;BME280;68476;42.710;23.388;2023-06-24T02:18:54;95594.31;;;18.93;77.52
79075;BME280;68476;42.710;23.388;2023-06-24T02:21:21;95589.66;;;18.83;78.24
79075;BME280;68476;42.710;23.388;2023-06-24T02:23:47;95589.78;;;18.42;80.01
79075;BME280;68476;42.710;23.388;2023-06-24T02:26:14;95590.91;;;18.10;81.12
79075;BME280;68476;42.710;23.388;2023-06-24T02:28:40;95612.97;;;18.05;81.76
79075;BME280;68476;42.710;23.388;2023-06-24T02:31:08;95625.94;;;18.25;81.29
79075;BME280;68476;42.710;23.388;2023-06-24T02:33:35;95638.31;;;18.27;81.29
79075;BME280;68476;42.710;23.388;2023-06-24T02:36:00;95639.44;;;18.06;82.08
79075;BME280;68476;42.710;23.388;2023-06-24T02:38:25;95643.28;;;17.99;82.82
79075;BME280;68476;42.710;23.388;2023-06-24T02:40:51;95647.66;;;17.90;83.25
79075;BME280;68476;42.710;23.388;2023-06-24T02:43:17;95648.25;;;17.97;83.63
79075;BME280;68476;42.710;23.388;2023-06-24T02:45:44;95650.41;;;17.85;83.83
79075;BME280;68476;42.710;23.388;2023-06-24T02:48:11;95657.56;;;17.76;84.73
79075;BME280;68476;42.710;23.388;2023-06-24T02:50:37;95640.47;;;17.68;84.86
79075;BME280;68476;42.710;23.388;2023-06-24T02:53:06;95638.81;;;17.78;85.49
79075;BME280;68476;42.710;23.388;2023-06-24T02:55:33;95640.75;;;17.82;84.93
79075;BME280;68476;42.710;23.388;2023-06-24T02:57:59;95649.28;;;17.70;85.88
79075;BME280;68476;42.710;23.388;2023-06-24T03:00:25;95644.56;;;17.45;86.20
79075;BME280;68476;42.710;23.388;2023-06-24T03:02:51;95647.03;;;17.47;86.02
79075;BME280;68476;42.710;23.388;2023-06-24T03:05:17;95656.41;;;17.51;86.89
79075;BME280;68476;42.710;23.388;2023-06-24T03:07:44;95659.41;;;17.49;87.55
79075;BME280;68476;42.710;23.388;2023-06-24T03:10:10;95654.50;;;17.56;86.29
79075;BME280;68476;42.710;23.388;2023-06-24T03:12:36;95663.59;;;17.67;86.49
79075;BME280;68476;42.710;23.388;2023-06-24T03:15:01;95663.59;;;17.62;86.34
79075;BME280;68476;42.710;23.388;2023-06-24T03:17:27;95667.19;;;17.68;86.84
79075;BME280;68476;42.710;23.388;2023-06-24T03:19:52;95655.63;;;17.71;85.79
79075;BME280;68476;42.710;23.388;2023-06-24T03:22:18;95660.59;;;17.95;85.41
79075;BME280;68476;42.710;23.388;2023-06-24T03:24:43;95665.63;;;18.08;83.98
79075;BME280;68476;42.710;23.388;2023-06-24T03:27:09;95662.59;;;18.05;84.66
79075;BME280;68476;42.710;23.388;2023-06-24T03:29:35;95670.06;;;18.14;84.35
79075;BME280;68476;42.710;23.388;2023-06-24T03:32:00;95672.53;;;18.26;83.78
79075;BME280;68476;42.710;23.388;2023-06-24T03:34:26;95672.81;;;18.35;83.61
79075;BME280;68476;42.710;23.388;2023-06-24T03:36:53;95667.84;;;18.27;82.59
79075;BME280;68476;42.710;23.388;2023-06-24T03:39:19;95690.72;;;18.48;82.04
79075;BME280;68476;42.710;23.388;2023-06-24T03:41:45;95680.81;;;18.57;82.25
79075;BME280;68476;42.710;23.388;2023-06-24T03:44:11;95683.81;;;18.71;81.68
79075;BME280;68476;42.710;23.388;2023-06-24T03:46:36;95693.22;;;18.75;81.37
79075;BME280;68476;42.710;23.388;2023-06-24T03:49:01;95700.69;;;18.44;82.92
79075;BME280;68476;42.710;23.388;2023-06-24T03:51:27;95689.63;;;18.49;82.71
79075;BME280;68476;42.710;23.388;2023-06-24T03:53:53;95688.22;;;18.83;81.28
79075;BME280;68476;42.710;23.388;2023-06-24T03:56:20;95681.31;;;19.01;80.45
79075;BME280;68476;42.710;23.388;2023-06-24T03:58:46;95684.59;;;19.08;80.93
79075;BME280;68476;42.710;23.388;2023-06-24T04:01:11;95687.34;;;19.08;80.66
79075;BME280;68476;42.710;23.388;2023-06-24T04:03:36;95698.91;;;19.25;79.65
79075;BME280;68476;42.710;23.388;2023-06-24T04:06:02;95691.41;;;19.42;79.51
79075;BME280;68476;42.710;23.388;2023-06-24T04:08:27;95695.44;;;19.65;78.56
79075;BME280;68476;42.710;23.388;2023-06-24T04:10:55;95702.03;;;19.74;78.28
79075;BME280;68476;42.710;23.388;2023-06-24T04:13:20;95695.41;;;19.70;77.70
79075;BME280;68476;42.710;23.388;2023-06-24T04:15:46;95689.91;;;19.65;77.31
79075;BME280;68476;42.710;23.388;2023-06-24T04:18:11;95688.13;;;19.90;76.97
79075;BME280;68476;42.710;23.388;2023-06-24T04:20:37;95674.28;;;19.95;76.95
79075;BME280;68476;42.710;23.388;2023-06-24T04:23:03;95681.72;;;19.99;76.99
79075;BME280;68476;42.710;23.388;2023-06-24T04:25:29;95682.75;;;20.09;77.30
79075;BME280;68476;42.710;23.388;2023-06-24T04:27:54;95687.44;;;20.13;76.80
79075;BME280;68476;42.710;23.388;2023-06-24T04:30:20;95681.56;;;20.20;76.61
79075;BME280;68476;42.710;23.388;2023-06-24T04:32:45;95681.13;;;20.42;76.00
79075;BME280;68476;42.710;23.388;2023-06-24T04:35:10;95684.56;;;20.63;74.99
79075;BME280;68476;42.710;23.388;2023-06-24T04:37:36;95665.00;;;20.84;73.53
79075;BME280;68476;42.710;23.388;2023-06-24T04:40:01;95681.44;;;20.75;74.29
79075;BME280;68476;42.710;23.388;2023-06-24T04:42:26;95695.50;;;20.79;74.22
79075;BME280;68476;42.710;23.388;2023-06-24T04:44:52;95693.03;;;20.77;73.62
79075;BME280;68476;42.710;23.388;2023-06-24T04:47:18;95682.94;;;21.16;72.35
79075;BME280;68476;42.710;23.388;2023-06-24T04:49:43;95684.38;;;21.14;72.53
79075;BME280;68476;42.710;23.388;2023-06-24T04:52:11;95683.00;;;21.35;71.52
79075;BME280;68476;42.710;23.388;2023-06-24T04:54:36;95686.66;;;21.55;71.00
79075;BME280;68476;42.710;23.388;2023-06-24T04:57:02;95693.31;;;21.54;70.71
79075;BME280;68476;42.710;23.388;2023-06-24T04:59:27;95688.53;;;21.84;70.03
79075;BME280;68476;42.710;23.388;2023-06-24T05:01:52;95685.41;;;21.91;68.98
79075;BME280;68476;42.710;23.388;2023-06-24T05:04:18;95679.84;;;22.10;68.25
79075;BME280;68476;42.710;23.388;2023-06-24T05:06:43;95690.19;;;21.85;69.52
79075;BME280;68476;42.710;23.388;2023-06-24T05:09:09;95683.97;;;22.12;68.26
79075;BME280;68476;42.710;23.388;2023-06-24T05:11:38;95683.13;;;22.31;67.07
79075;BME280;68476;42.710;23.388;2023-06-24T05:14:04;95677.66;;;22.26;67.75
79075;BME280;68476;42.710;23.388;2023-06-24T05:16:29;95669.94;;;22.42;67.23
79075;BME280;68476;42.710;23.388;2023-06-24T05:18:54;95669.25;;;22.50;66.01
79075;BME280;68476;42.710;23.388;2023-06-24T05:21:20;95660.31;;;22.53;66.16
79075;BME280;68476;42.710;23.388;2023-06-24T05:23:45;95667.00;;;22.52;65.66
79075;BME280;68476;42.710;23.388;2023-06-24T05:26:10;95673.75;;;22.79;64.93
79075;BME280;68476;42.710;23.388;2023-06-24T05:28:36;95673.75;;;22.27;65.84
79075;BME280;68476;42.710;23.388;2023-06-24T05:31:01;95676.53;;;22.27;65.94
79075;BME280;68476;42.710;23.388;2023-06-24T05:33:27;95669.94;;;22.75;64.11
79075;BME280;68476;42.710;23.388;2023-06-24T05:35:52;95673.84;;;22.74;64.13
79075;BME280;68476;42.710;23.388;2023-06-24T05:38:18;95688.81;;;22.92;62.97
79075;BME280;68476;42.710;23.388;2023-06-24T05:40:43;95686.88;;;22.92;62.79
79075;BME280;68476;42.710;23.388;2023-06-24T05:43:09;95681.06;;;23.22;61.83
79075;BME280;68476;42.710;23.388;2023-06-24T05:45:35;95673.59;;;23.17;62.34
79075;BME280;68476;42.710;23.388;2023-06-24T05:48:02;95675.91;;;22.82;63.98
79075;BME280;68476;42.710;23.388;2023-06-24T05:50:28;95668.84;;;22.57;65.54
79075;BME280;68476;42.710;23.388;2023-06-24T05:52:53;95668.16;;;22.65;65.97
79075;BME280;68476;42.710;23.388;2023-06-24T05:55:19;95663.91;;;22.54;66.22
79075;BME280;68476;42.710;23.388;2023-06-24T05:57:44;95666.41;;;22.55;65.39
79075;BME280;68476;42.710;23.388;2023-06-24T06:00:10;95653.06;;;22.85;64.63
79075;BME280;68476;42.710;23.388;2023-06-24T06:02:35;95659.03;;;23.26;63.61
79075;BME280;68476;42.710;23.388;2023-06-24T06:05:01;95658.94;;;23.45;62.65
79075;BME280;68476;42.710;23.388;2023-06-24T06:07:26;95646.53;;;23.79;62.38
79075;BME280;68476;42.710;23.388;2023-06-24T06:09:52;95658.31;;;23.20;62.68
79075;BME280;68476;42.710;23.388;2023-06-24T06:12:17;95655.44;;;23.39;63.21
79075;BME280;68476;42.710;23.388;2023-06-24T06:14:42;95647.66;;;23.64;62.99
79075;BME280;68476;42.710;23.388;2023-06-24T06:17:08;95654.97;;;23.74;63.32
79075;BME280;68476;42.710;23.388;2023-06-24T06:19:33;95651.03;;;23.89;62.46
79075;BME280;68476;42.710;23.388;2023-06-24T06:21:59;95657.03;;;23.96;62.84
79075;BME280;68476;42.710;23.388;2023-06-24T06:24:24;95648.81;;;23.63;63.78
79075;BME280;68476;42.710;23.388;2023-06-24T06:26:49;95649.00;;;24.17;62.16
79075;BME280;68476;42.710;23.388;2023-06-24T06:29:15;95647.81;;;24.09;62.30
79075;BME280;68476;42.710;23.388;2023-06-24T06:31:40;95649.06;;;24.40;60.35
79075;BME280;68476;42.710;23.388;2023-06-24T06:34:05;95657.75;;;24.24;60.63
79075;BME280;68476;42.710;23.388;2023-06-24T06:36:31;95653.59;;;24.36;60.07
79075;BME280;68476;42.710;23.388;2023-06-24T06:38:56;95647.19;;;24.35;59.11
79075;BME280;68476;42.710;23.388;2023-06-24T06:41:22;95658.09;;;24.45;58.94
79075;BME280;68476;42.710;23.388;2023-06-24T06:43:53;95657.41;;;24.40;58.93
79075;BME280;68476;42.710;23.388;2023-06-24T06:46:18;95653.25;;;24.60;59.07
79075;BME280;68476;42.710;23.388;2023-06-24T06:48:44;95666.19;;;24.56;59.51
79075;BME280;68476;42.710;23.388;2023-06-24T06:51:09;95668.22;;;24.64;60.55
79075;BME280;68476;42.710;23.388;2023-06-24T06:53:35;95653.28;;;25.14;59.26
79075;BME280;68476;42.710;23.388;2023-06-24T06:56:00;95659.06;;;25.27;58.63
79075;BME280;68476;42.710;23.388;2023-06-24T06:58:25;95655.25;;;25.14;57.91
79075;BME280;68476;42.710;23.388;2023-06-24T07:00:51;95658.94;;;25.32;56.48
79075;BME280;68476;42.710;23.388;2023-06-24T07:03:16;95655.88;;;25.11;56.04
79075;BME280;68476;42.710;23.388;2023-06-24T07:05:42;95659.81;;;25.41;55.17
79075;BME280;68476;42.710;23.388;2023-06-24T07:08:07;95643.97;;;25.77;55.39
79075;BME280;68476;42.710;23.388;2023-06-24T07:10:33;95651.69;;;25.71;54.83
79075;BME280;68476;42.710;23.388;2023-06-24T07:12:58;95658.69;;;26.35;54.05
79075;BME280;68476;42.710;23.388;2023-06-24T07:15:25;95652.56;;;25.98;55.15
79075;BME280;68476;42.710;23.388;2023-06-24T07:17:51;95657.66;;;25.96;52.88
79075;BME280;68476;42.710;23.388;2023-06-24T07:20:17;95654.66;;;25.83;54.09
79075;BME280;68476;42.710;23.388;2023-06-24T07:22:42;95651.75;;;26.06;53.05
79075;BME280;68476;42.710;23.388;2023-06-24T07:25:08;95657.66;;;26.05;52.70
79075;BME280;68476;42.710;23.388;2023-06-24T07:27:33;95652.28;;;26.17;52.15
79075;BME280;68476;42.710;23.388;2023-06-24T07:29:58;95649.97;;;26.54;52.10
79075;BME280;68476;42.710;23.388;2023-06-24T07:32:24;95654.22;;;26.69;53.22
79075;BME280;68476;42.710;23.388;2023-06-24T07:34:49;95652.94;;;26.40;53.11
79075;BME280;68476;42.710;23.388;2023-06-24T07:37:15;95655.47;;;27.07;50.69
79075;BME280;68476;42.710;23.388;2023-06-24T07:39:40;95642.59;;;27.23;49.50
79075;BME280;68476;42.710;23.388;2023-06-24T07:42:06;95634.31;;;27.75;48.17
79075;BME280;68476;42.710;23.388;2023-06-24T07:44:32;95653.25;;;26.83;51.02
79075;BME280;68476;42.710;23.388;2023-06-24T07:46:57;95638.28;;;26.87;51.62
79075;BME280;68476;42.710;23.388;2023-06-24T07:49:23;95643.69;;;26.75;51.28
79075;BME280;68476;42.710;23.388;2023-06-24T07:51:49;95643.63;;;27.10;49.79
79075;BME280;68476;42.710;23.388;2023-06-24T07:54:14;95637.63;;;27.38;49.95
79075;BME280;68476;42.710;23.388;2023-06-24T07:56:40;95650.94;;;28.01;47.73
79075;BME280;68476;42.710;23.388;2023-06-24T07:59:05;95642.13;;;27.60;48.85
79075;BME280;68476;42.710;23.388;2023-06-24T08:01:31;95646.03;;;27.29;49.22
79075;BME280;68476;42.710;23.388;2023-06-24T08:03:56;95652.03;;;27.58;48.94
79075;BME280;68476;42.710;23.388;2023-06-24T08:06:22;95655.41;;;26.86;50.10
79075;BME280;68476;42.710;23.388;2023-06-24T08:08:47;95656.06;;;26.56;51.50
79075;BME280;68476;42.710;23.388;2023-06-24T08:11:13;95648.00;;;26.72;49.86
79075;BME280;68476;42.710;23.388;2023-06-24T08:13:39;95662.44;;;26.83;49.54
79075;BME280;68476;42.710;23.388;2023-06-24T08:16:05;95654.31;;;27.17;49.54
79075;BME280;68476;42.710;23.388;2023-06-24T08:18:30;95647.72;;;27.90;47.58
79075;BME280;68476;42.710;23.388;2023-06-24T08:20:56;95644.22;;;27.72;48.57
79075;BME280;68476;42.710;23.388;2023-06-24T08:23:22;95652.56;;;27.81;48.24
79075;BME280;68476;42.710;23.388;2023-06-24T08:25:47;95645.53;;;27.36;48.62
79075;BME280;68476;42.710;23.388;2023-06-24T08:28:12;95652.63;;;27.33;48.76
79075;BME280;68476;42.710;23.388;2023-06-24T08:30:38;95646.41;;;27.88;46.30
79075;BME280;68476;42.710;23.388;2023-06-24T08:33:03;95646.41;;;28.18;47.50
79075;BME280;68476;42.710;23.388;2023-06-24T08:35:29;95639.22;;;28.50;45.85
79075;BME280;68476;42.710;23.388;2023-06-24T08:37:54;95641.16;;;28.92;45.01
79075;BME280;68476;42.710;23.388;2023-06-24T08:40:19;95634.91;;;28.74;44.72
79075;BME280;68476;42.710;23.388;2023-06-24T08:42:45;95621.41;;;29.59;42.16
79075;BME280;68476;42.710;23.388;2023-06-24T08:45:10;95619.50;;;29.76;42.04
79075;BME280;68476;42.710;23.388;2023-06-24T08:47:36;95618.31;;;29.77;43.56
79075;BME280;68476;42.710;23.388;2023-06-24T08:50:04;95624.75;;;28.27;45.39
79075;BME280;68476;42.710;23.388;2023-06-24T08:52:32;95613.91;;;28.59;44.59
79075;BME280;68476;42.710;23.388;2023-06-24T08:55:01;95621.31;;;29.10;43.86
79075;BME280;68476;42.710;23.388;2023-06-24T08:57:26;95612.97;;;29.72;42.46
79075;BME280;68476;42.710;23.388;2023-06-24T08:59:52;95609.38;;;29.00;44.75
79075;BME280;68476;42.710;23.388;2023-06-24T09:02:18;95610.06;;;28.97;43.39
79075;BME280;68476;42.710;23.388;2023-06-24T09:04:44;95615.03;;;29.25;43.41
79075;BME280;68476;42.710;23.388;2023-06-24T09:07:09;95604.28;;;29.64;42.77
79075;BME280;68476;42.710;23.388;2023-06-24T09:09:44;95602.25;;;28.57;44.31
79075;BME280;68476;42.710;23.388;2023-06-24T09:12:12;95599.97;;;29.79;42.19
79075;BME280;68476;42.710;23.388;2023-06-24T09:14:38;95596.25;;;30.28;41.18
79075;BME280;68476;42.710;23.388;2023-06-24T09:17:03;95593.41;;;30.69;40.87
79075;BME280;68476;42.710;23.388;2023-06-24T09:19:29;95591.88;;;30.72;40.69
79075;BME280;68476;42.710;23.388;2023-06-24T09:22:01;95596.53;;;30.52;40.67
79075;BME280;68476;42.710;23.388;2023-06-24T09:24:29;95601.94;;;30.04;41.47
79075;BME280;68476;42.710;23.388;2023-06-24T09:26:56;95610.81;;;30.47;41.55
79075;BME280;68476;42.710;23.388;2023-06-24T09:29:25;95603.19;;;30.47;40.27
79075;BME280;68476;42.710;23.388;2023-06-24T09:31:52;95609.38;;;30.81;40.48
79075;BME280;68476;42.710;23.388;2023-06-24T09:34:18;95601.19;;;30.19;40.33
79075;BME280;68476;42.710;23.388;2023-06-24T09:36:45;95609.28;;;30.49;41.86
79075;BME280;68476;42.710;23.388;2023-06-24T09:39:11;95600.84;;;30.49;41.82
79075;BME280;68476;42.710;23.388;2023-06-24T09:41:40;95607.44;;;30.41;40.42
79075;BME280;68476;42.710;23.388;2023-06-24T09:44:08;95610.97;;;30.38;40.20
79075;BME280;68476;42.710;23.388;2023-06-24T09:46:36;95610.16;;;30.37;40.95
79075;BME280;68476;42.710;23.388;2023-06-24T09:49:03;95603.13;;;30.72;39.76
79075;BME280;68476;42.710;23.388;2023-06-24T09:51:30;95607.84;;;31.12;38.72
79075;BME280;68476;42.710;23.388;2023-06-24T09:53:57;95598.84;;;31.55;39.15
79075;BME280;68476;42.710;23.388;2023-06-24T09:56:23;95602.66;;;30.98;39.47
79075;BME280;68476;42.710;23.388;2023-06-24T09:58:49;95599.56;;;30.47;39.39
79075;BME280;68476;42.710;23.388;2023-06-24T10:01:15;95592.28;;;31.02;38.78
79075;BME280;68476;42.710;23.388;2023-06-24T10:03:42;95592.88;;;31.24;38.45
79075;BME280;68476;42.710;23.388;2023-06-24T10:06:08;95599.88;;;31.30;40.31
79075;BME280;68476;42.710;23.388;2023-06-24T10:08:34;95590.13;;;31.60;38.88
79075;BME280;68476;42.710;23.388;2023-06-24T10:10:59;95580.19;;;31.98;37.70
79075;BME280;68476;42.710;23.388;2023-06-24T10:13:28;95579.03;;;32.38;37.03
79075;BME280;68476;42.710;23.388;2023-06-24T10:15:55;95582.00;;;32.26;36.80
79075;BME280;68476;42.710;23.388;2023-06-24T10:18:37;95576.94;;;32.35;36.25
79075;BME280;68476;42.710;23.388;2023-06-24T10:21:07;95572.88;;;32.33;37.23
79075;BME280;68476;42.710;23.388;2023-06-24T10:23:51;95562.09;;;32.58;37.28
79075;BME280;68476;42.710;23.388;2023-06-24T10:26:28;95550.31;;;32.52;38.34
79075;BME280;68476;42.710;23.388;2023-06-24T10:31:55;95548.28;;;32.13;37.19
79075;BME280;68476;42.710;23.388;2023-06-24T10:44:49;95516.25;;;32.81;35.93
79075;BME280;68476;42.710;23.388;2023-06-24T10:47:15;95514.66;;;34.45;31.44
79075;BME280;68476;42.710;23.388;2023-06-24T10:49:41;95505.84;;;35.92;28.78
79075;BME280;68476;42.710;23.388;2023-06-24T10:52:10;95503.44;;;37.91;27.18
79075;BME280;68476;42.710;23.388;2023-06-24T10:54:37;95496.09;;;36.85;27.49
79075;BME280;68476;42.710;23.388;2023-06-24T10:57:06;95491.53;;;38.18;26.28
79075;BME280;68476;42.710;23.388;2023-06-24T10:59:41;95487.56;;;37.83;26.24
79075;BME280;68476;42.710;23.388;2023-06-24T11:02:08;95481.59;;;39.29;24.72
79075;BME280;68476;42.710;23.388;2023-06-24T11:04:42;95481.72;;;38.41;24.01
79075;BME280;68476;42.710;23.388;2023-06-24T11:07:08;95475.59;;;40.04;21.81
79075;BME280;68476;42.710;23.388;2023-06-24T11:09:33;95478.44;;;38.49;23.31
79075;BME280;68476;42.710;23.388;2023-06-24T11:11:58;95477.31;;;38.18;24.51
79075;BME280;68476;42.710;23.388;2023-06-24T11:14:24;95481.81;;;38.15;23.31
79075;BME280;68476;42.710;23.388;2023-06-24T11:16:49;95480.47;;;38.49;20.42
79075;BME280;68476;42.710;23.388;2023-06-24T11:19:15;95488.44;;;37.36;22.86
79075;BME280;68476;42.710;23.388;2023-06-24T11:21:41;95485.53;;;36.67;25.50
79075;BME280;68476;42.710;23.388;2023-06-24T11:24:06;95480.19;;;38.14;23.35
79075;BME280;68476;42.710;23.388;2023-06-24T11:26:32;95485.53;;;39.88;20.84
79075;BME280;68476;42.710;23.388;2023-06-24T11:28:58;95487.84;;;40.35;21.09
79075;BME280;68476;42.710;23.388;2023-06-24T11:31:27;95480.41;;;42.43;19.05
79075;BME280;68476;42.710;23.388;2023-06-24T11:33:52;95493.03;;;40.79;20.81
79075;BME280;68476;42.710;23.388;2023-06-24T11:36:18;95478.25;;;39.84;21.48
79075;BME280;68476;42.710;23.388;2023-06-24T11:38:47;95483.13;;;39.87;20.99
79075;BME280;68476;42.710;23.388;2023-06-24T11:41:14;95477.91;;;37.44;22.69
79075;BME280;68476;42.710;23.388;2023-06-24T11:43:46;95474.75;;;39.16;21.92
79075;BME280;68476;42.710;23.388;2023-06-24T11:46:27;95469.97;;;38.35;23.23
79075;BME280;68476;42.710;23.388;2023-06-24T11:49:06;95470.38;;;35.01;26.72
79075;BME280;68476;42.710;23.388;2023-06-24T11:51:32;95453.19;;;34.79;28.07
79075;BME280;68476;42.710;23.388;2023-06-24T11:54:05;95443.34;;;35.07;27.10
79075;BME280;68476;42.710;23.388;2023-06-24T11:56:37;95442.97;;;35.09;29.13
79075;BME280;68476;42.710;23.388;2023-06-24T11:59:04;95448.53;;;34.98;27.92
79075;BME280;68476;42.710;23.388;2023-06-24T12:01:34;95448.66;;;33.99;29.72
79075;BME280;68476;42.710;23.388;2023-06-24T12:04:12;95437.19;;;37.94;25.54
79075;BME280;68476;42.710;23.388;2023-06-24T12:06:42;95437.19;;;37.87;25.83
79075;BME280;68476;42.710;23.388;2023-06-24T12:09:08;95428.34;;;37.63;25.49
79075;BME280;68476;42.710;23.388;2023-06-24T12:11:34;95421.47;;;37.28;25.11
79075;BME280;68476;42.710;23.388;2023-06-24T12:13:59;95409.69;;;37.58;25.25
79075;BME280;68476;42.710;23.388;2023-06-24T12:16:24;95401.59;;;37.17;25.63
79075;BME280;68476;42.710;23.388;2023-06-24T12:18:52;95408.00;;;36.42;26.57
79075;BME280;68476;42.710;23.388;2023-06-24T12:21:17;95408.50;;;35.62;26.44
79075;BME280;68476;42.710;23.388;2023-06-24T12:23:43;95410.53;;;34.20;28.02
79075;BME280;68476;42.710;23.388;2023-06-24T12:26:08;95406.72;;;34.01;30.16
79075;BME280;68476;42.710;23.388;2023-06-24T12:28:33;95409.34;;;33.29;31.36
79075;BME280;68476;42.710;23.388;2023-06-24T12:30:59;95401.25;;;33.55;29.90
79075;BME280;68476;42.710;23.388;2023-06-24T12:33:24;95401.25;;;33.01;31.97
79075;BME280;68476;42.710;23.388;2023-06-24T12:35:49;95392.91;;;32.81;32.35
79075;BME280;68476;42.710;23.388;2023-06-24T12:38:15;95405.31;;;31.91;33.21
79075;BME280;68476;42.710;23.388;2023-06-24T12:40:41;95416.13;;;32.28;32.99
79075;BME280;68476;42.710;23.388;2023-06-24T12:43:07;95421.94;;;31.76;34.32
79075;BME280;68476;42.710;23.388;2023-06-24T12:45:32;95434.22;;;31.88;34.22
79075;BME280;68476;42.710;23.388;2023-06-24T12:47:58;95447.00;;;31.81;34.47
79075;BME280;68476;42.710;23.388;2023-06-24T12:50:24;95448.72;;;31.50;33.14
79075;BME280;68476;42.710;23.388;2023-06-24T12:52:49;95453.88;;;30.97;35.43
79075;BME280;68476;42.710;23.388;2023-06-24T12:55:15;95462.66;;;31.11;35.54
79075;BME280;68476;42.710;23.388;2023-06-24T12:57:40;95471.00;;;31.40;35.40
79075;BME280;68476;42.710;23.388;2023-06-24T13:00:06;95470.00;;;31.32;35.78
79075;BME280;68476;42.710;23.388;2023-06-24T13:02:32;95465.31;;;31.20;36.43
79075;BME280;68476;42.710;23.388;2023-06-24T13:04:58;95452.06;;;30.88;37.02
79075;BME280;68476;42.710;23.388;2023-06-24T13:07:23;95441.72;;;31.09;35.98
79075;BME280;68476;42.710;23.388;2023-06-24T13:09:49;95434.09;;;30.93;36.82
79075;BME280;68476;42.710;23.388;2023-06-24T13:12:14;95422.84;;;30.93;37.57